Earlington, Kentucky
Current Conditions -  °F | °C
As of 4:15 PM on Monday 20 Oct 2014 (Local Time) from K2I0 Reporting Station
Clear Clear  
Wind Chill: 72°   Ceiling: Unl
Heat Index: 72°   Visibility: 10mi
Dew Point: 55°   Wind: 16mph
Humidity: 54%   Direction: 250°WSW
Pressure: 29.91"   Gusts: 22mph
Location:  37.27°N, 87.51°W
Report Text: K2I0 202115Z AUTO 25014G19KT 10SM CLR 22/13 A2991 RMK AO2 T02220125
Loading
Personal Weather Stations






























Interactive Weather Map
Tropical Storm Tracking
New forecast layout! Learn more

10-Day Weather Forecast

Advertisements
Track Severe Weather on mobile